Time;durP1;ratioP1;P1;durP2;ratioP2;P2;SDS_P1;SDS_P2;PMS_P1;PMS_P2;Temp;Humidity;BMP_temperature;BMP_pressure;BME280_temperature;BME280_humidity;BME280_pressure;Samples;Min_cycle;Max_cycle;Signal;HPM_P1;HPM_P2
2023/07/14 00:01:24;;;;;;;6.50;6.13;;;21.60;11.80;;;;;;4974115;28;20946;-53
2023/07/14 00:03:50;;;;;;;6.47;5.90;;;21.40;12.10;;;;;;4975266;28;20770;-54
2023/07/14 00:06:17;;;;;;;6.10;5.80;;;21.30;12.40;;;;;;4957990;28;20791;-56
2023/07/14 00:08:44;;;;;;;6.60;6.30;;;21.30;12.50;;;;;;4957721;28;20882;-55
2023/07/14 00:11:19;;;;;;;6.03;5.80;;;21.40;12.30;;;;;;4957789;28;20422;-56
2023/07/14 00:13:45;;;;;;;6.83;6.23;;;21.50;12.10;;;;;;4957797;28;20425;-52
2023/07/14 00:16:12;;;;;;;6.23;5.90;;;21.60;12.20;;;;;;4957648;28;20517;-52
2023/07/14 00:18:37;;;;;;;6.83;6.43;;;21.70;12.40;;;;;;4973042;28;20202;-51
2023/07/14 00:21:03;;;;;;;6.20;5.80;;;21.80;12.40;;;;;;4957084;28;20927;-49
2023/07/14 00:23:29;;;;;;;6.53;6.13;;;21.90;12.40;;;;;;4941813;28;20182;-53
2023/07/14 00:25:54;;;;;;;6.47;6.07;;;21.90;13.00;;;;;;4957523;28;20277;-49
2023/07/14 00:28:21;;;;;;;6.23;5.93;;;21.90;12.40;;;;;;4957321;28;20182;-49
2023/07/14 00:30:48;;;;;;;6.00;5.60;;;22.00;12.40;;;;;;4957512;28;20203;-46
2023/07/14 00:33:16;;;;;;;6.67;6.27;;;22.00;12.20;;;;;;4957353;28;20429;-48
2023/07/14 00:35:42;;;;;;;6.30;5.90;;;22.00;11.80;;;;;;4957465;28;20480;-50
2023/07/14 00:38:09;;;;;;;6.60;6.20;;;21.80;12.20;;;;;;4957151;28;20422;-49
2023/07/14 00:40:46;;;;;;;5.80;5.60;;;21.80;12.50;;;;;;4957391;28;20214;-48
2023/07/14 00:43:21;;;;;;;6.30;6.00;;;21.80;12.70;;;;;;4957352;28;20421;-50
2023/07/14 00:45:49;;;;;;;6.03;5.80;;;21.80;12.80;;;;;;4957117;28;20519;-51
2023/07/14 00:48:18;;;;;;;6.93;6.50;;;21.90;13.40;;;;;;4956882;28;20414;-49
2023/07/14 00:51:00;;;;;;;6.43;6.03;;;21.90;12.60;;;;;;4957107;28;20449;-53
2023/07/14 00:53:34;;;;;;;7.23;6.73;;;21.90;12.50;;;;;;4973158;28;20465;-47
2023/07/14 00:56:03;;;;;;;6.47;6.07;;;22.00;12.60;;;;;;4957191;28;20533;-47
2023/07/14 00:58:30;;;;;;;6.53;6.20;;;22.00;12.60;;;;;;4972826;28;20418;-51
2023/07/14 01:01:21;;;;;;;6.67;6.20;;;22.00;12.50;;;;;;4956920;28;20433;-49
2023/07/14 01:03:48;;;;;;;6.23;5.80;;;22.00;12.50;;;;;;4957045;28;20430;-48
2023/07/14 01:06:38;;;;;;;6.97;6.47;;;22.00;12.60;;;;;;4972915;28;20823;-48
2023/07/14 01:09:12;;;;;;;6.33;6.03;;;22.00;12.80;;;;;;4972760;28;21026;-49
2023/07/14 01:11:52;;;;;;;6.53;6.33;;;21.90;12.70;;;;;;4956743;28;20429;-52
2023/07/14 01:14:29;;;;;;;7.10;6.60;;;21.90;12.60;;;;;;4956984;28;20429;-50
2023/07/14 01:16:57;;;;;;;6.83;6.33;;;21.90;12.90;;;;;;4956555;28;20421;-55
2023/07/14 01:19:41;;;;;;;7.60;7.10;;;21.90;13.10;;;;;;4956267;28;20808;-48
2023/07/14 01:22:16;;;;;;;7.10;6.80;;;21.90;13.40;;;;;;4956504;28;20429;-49
2023/07/14 01:27:13;;;;;;;6.80;6.50;;;22.00;13.50;;;;;;5014186;23;20848;-63
2023/07/14 01:29:39;;;;;;;6.23;6.00;;;22.00;13.60;;;;;;4996516;28;20459;-62
2023/07/14 01:32:16;;;;;;;6.70;6.30;;;22.00;13.60;;;;;;5032273;28;20442;-63
2023/07/14 01:34:41;;;;;;;6.97;6.47;;;21.90;13.60;;;;;;5004379;28;20193;-62
2023/07/14 01:37:08;;;;;;;7.17;6.83;;;21.90;13.60;;;;;;5012679;28;20523;-63
2023/07/14 01:39:35;;;;;;;6.80;6.50;;;21.90;13.80;;;;;;4994853;28;20196;-62
2023/07/14 01:42:00;;;;;;;7.30;6.90;;;21.90;13.80;;;;;;5011369;28;20416;-63
2023/07/14 01:44:27;;;;;;;7.30;6.73;;;21.90;14.00;;;;;;5012651;28;20412;-62
2023/07/14 01:46:54;;;;;;;7.17;6.67;;;21.90;14.10;;;;;;5012439;28;20474;-63
2023/07/14 01:49:32;;;;;;;6.83;6.53;;;21.90;14.10;;;;;;5010978;28;20412;-62
2023/07/14 01:52:01;;;;;;;6.77;6.27;;;21.90;14.40;;;;;;5011191;28;20780;-62
2023/07/14 01:54:36;;;;;;;7.23;6.93;;;21.80;14.30;;;;;;5012565;28;20416;-62
2023/07/14 01:57:06;;;;;;;6.93;6.63;;;21.80;14.30;;;;;;5011202;28;20416;-63
2023/07/14 01:59:38;;;;;;;7.00;6.70;;;21.80;14.30;;;;;;5011017;28;20423;-63
2023/07/14 02:02:11;;;;;;;7.43;6.90;;;21.70;14.30;;;;;;5011009;28;20578;-57
2023/07/14 02:04:39;;;;;;;7.10;6.77;;;21.70;14.30;;;;;;5011090;28;20424;-56
2023/07/14 02:07:04;;;;;;;6.90;6.60;;;21.70;14.20;;;;;;5010932;28;20470;-57
2023/07/14 02:09:32;;;;;;;6.90;6.60;;;21.70;14.30;;;;;;4994612;28;20800;-57
2023/07/14 02:12:02;;;;;;;7.50;7.10;;;21.70;14.40;;;;;;5010963;28;20173;-57
2023/07/14 02:14:41;;;;;;;7.97;7.47;;;21.70;14.20;;;;;;5012071;28;20772;-57
2023/07/14 02:17:25;;;;;;;7.30;6.80;;;21.70;14.50;;;;;;5010940;28;20423;-56
2023/07/14 02:19:51;;;;;;;7.53;7.10;;;21.60;14.90;;;;;;5010805;28;20411;-57
2023/07/14 02:22:18;;;;;;;7.07;6.77;;;21.60;15.00;;;;;;5011007;28;20757;-57
2023/07/14 02:24:46;;;;;;;7.63;7.33;;;21.50;14.90;;;;;;5012136;28;20411;-57
2023/07/14 02:27:12;;;;;;;7.80;7.30;;;21.50;15.00;;;;;;5010680;28;20522;-57
2023/07/14 02:29:38;;;;;;;7.50;7.10;;;21.50;15.10;;;;;;4994308;28;20482;-57
2023/07/14 02:32:40;;;;;;;7.80;7.20;;;21.50;15.20;;;;;;5010853;28;20420;-57
2023/07/14 02:35:15;;;;;;;7.07;6.67;;;21.40;15.20;;;;;;4973635;28;20515;-56
2023/07/14 02:40:49;;;;;;;7.23;6.83;;;21.40;15.40;;;;;;5007228;28;20760;-56
2023/07/14 02:43:18;;;;;;;7.70;7.27;;;21.30;15.40;;;;;;5012781;28;20513;-56
2023/07/14 02:45:56;;;;;;;7.30;6.90;;;21.40;15.60;;;;;;5014444;28;20460;-56
2023/07/14 02:48:30;;;;;;;7.30;7.00;;;21.30;15.50;;;;;;5014316;28;20840;-57
2023/07/14 02:50:57;;;;;;;7.90;7.27;;;21.30;15.60;;;;;;5014441;28;20416;-62
2023/07/14 02:53:22;;;;;;;7.77;7.27;;;21.30;15.40;;;;;;5014409;28;20828;-62
2023/07/14 02:55:48;;;;;;;6.57;6.17;;;21.30;15.30;;;;;;4998056;28;20507;-61
2023/07/14 02:58:14;;;;;;;7.30;6.90;;;21.40;15.50;;;;;;4997879;28;20188;-62
2023/07/14 03:00:39;;;;;;;6.67;6.37;;;21.40;15.50;;;;;;4997935;28;20178;-62
2023/07/14 03:03:05;;;;;;;7.33;6.83;;;21.30;16.20;;;;;;4997803;28;20189;-62
2023/07/14 03:05:31;;;;;;;7.30;7.00;;;21.30;15.60;;;;;;4997859;28;20572;-57
2023/07/14 03:07:56;;;;;;;6.80;6.50;;;21.30;15.80;;;;;;5013916;28;20261;-57
2023/07/14 03:10:22;;;;;;;6.83;6.53;;;21.20;15.90;;;;;;4997784;28;20178;-57
2023/07/14 03:12:48;;;;;;;7.97;7.47;;;21.20;16.00;;;;;;4997687;28;20176;-57
2023/07/14 03:15:13;;;;;;;8.17;7.60;;;21.20;16.10;;;;;;4997634;28;20536;-57
2023/07/14 03:17:39;;;;;;;7.70;7.00;;;21.10;16.20;;;;;;5014072;28;20269;-57
2023/07/14 03:20:10;;;;;;;8.60;8.00;;;21.10;16.20;;;;;;5013689;28;20170;-57
2023/07/14 03:22:35;;;;;;;8.00;7.17;;;21.10;16.40;;;;;;5013935;28;20227;-57
2023/07/14 03:25:01;;;;;;;7.63;7.13;;;21.10;16.40;;;;;;4997372;28;20495;-57
2023/07/14 03:27:27;;;;;;;7.40;7.00;;;21.10;16.30;;;;;;4997388;28;20644;-57
2023/07/14 03:29:54;;;;;;;6.80;6.60;;;21.10;16.50;;;;;;5013447;28;20265;-57
2023/07/14 03:32:20;;;;;;;8.50;7.90;;;21.10;16.40;;;;;;5015033;28;20408;-57
2023/07/14 03:34:46;;;;;;;7.40;7.00;;;21.00;16.60;;;;;;5013689;28;20413;-57
2023/07/14 03:37:12;;;;;;;8.03;7.50;;;21.00;16.40;;;;;;4997167;28;20523;-56
2023/07/14 03:39:38;;;;;;;8.00;7.50;;;21.00;16.60;;;;;;5013374;28;20650;-56
2023/07/14 03:42:04;;;;;;;7.60;7.13;;;21.00;16.70;;;;;;4997009;28;20419;-57
2023/07/14 03:44:32;;;;;;;7.80;7.40;;;21.00;16.60;;;;;;5013464;28;20421;-57
2023/07/14 03:46:57;;;;;;;7.13;6.83;;;21.00;16.80;;;;;;5013212;28;20490;-57
2023/07/14 03:49:23;;;;;;;6.97;6.57;;;20.90;16.80;;;;;;4996960;28;20491;-57
2023/07/14 03:51:49;;;;;;;7.80;7.20;;;20.90;16.80;;;;;;4997001;28;20718;-57
2023/07/14 03:54:15;;;;;;;8.07;7.57;;;20.90;16.80;;;;;;4995714;28;20195;-57
2023/07/14 03:56:42;;;;;;;7.30;6.80;;;20.90;17.50;;;;;;5014562;28;20412;-57
2023/07/14 03:59:07;;;;;;;7.07;6.77;;;20.90;16.90;;;;;;4996522;28;20205;-57
2023/07/14 04:01:33;;;;;;;7.23;6.90;;;20.90;16.80;;;;;;5013242;28;20467;-57
2023/07/14 04:03:59;;;;;;;7.53;7.23;;;20.90;16.80;;;;;;4996737;28;20181;-62
2023/07/14 04:06:24;;;;;;;7.20;6.90;;;20.90;16.70;;;;;;4996599;28;20244;-63
2023/07/14 04:08:54;;;;;;;7.57;7.03;;;21.00;16.70;;;;;;4996471;28;20224;-62
2023/07/14 04:11:20;;;;;;;7.67;7.27;;;21.00;16.60;;;;;;5012967;28;20588;-63
2023/07/14 04:13:45;;;;;;;7.83;7.00;;;20.90;16.70;;;;;;4996709;28;20416;-62
2023/07/14 04:16:11;;;;;;;8.03;7.53;;;21.00;16.80;;;;;;4996484;28;20637;-63
2023/07/14 04:18:36;;;;;;;7.70;7.30;;;21.00;16.70;;;;;;4996296;28;20556;-62
2023/07/14 04:21:06;;;;;;;8.70;8.10;;;20.90;16.80;;;;;;4996277;28;20189;-62
2023/07/14 04:23:32;;;;;;;7.83;7.40;;;20.90;16.70;;;;;;5012698;28;20205;-63
2023/07/14 04:26:01;;;;;;;7.60;7.10;;;20.90;16.50;;;;;;4995848;28;20582;-62
2023/07/14 04:28:27;;;;;;;7.47;7.17;;;20.90;16.50;;;;;;5013866;28;20405;-63
2023/07/14 04:30:54;;;;;;;7.77;7.30;;;20.80;16.10;;;;;;4996292;28;20503;-63
2023/07/14 04:33:21;;;;;;;7.90;7.50;;;20.60;16.30;;;;;;5012431;28;20202;-63
2023/07/14 04:35:51;;;;;;;8.33;7.83;;;20.40;16.70;;;;;;4996150;28;20787;-57
2023/07/14 04:38:17;;;;;;;7.90;7.40;;;20.30;17.20;;;;;;5012330;28;20428;-57
2023/07/14 04:40:44;;;;;;;8.60;7.80;;;20.20;17.50;;;;;;5012589;28;20424;-57
2023/07/14 04:43:11;;;;;;;8.07;7.63;;;20.20;18.10;;;;;;5012548;28;20768;-57
2023/07/14 04:45:38;;;;;;;8.10;7.57;;;20.30;18.40;;;;;;5012503;28;20462;-57
2023/07/14 04:48:09;;;;;;;8.47;7.97;;;20.20;18.60;;;;;;5012340;28;20935;-54
2023/07/14 04:50:35;;;;;;;8.13;7.60;;;20.10;18.60;;;;;;5012349;28;20761;-53
2023/07/14 04:53:05;;;;;;;7.80;7.50;;;20.10;19.10;;;;;;5012601;28;20424;-52
2023/07/14 04:55:41;;;;;;;8.40;7.80;;;20.10;19.00;;;;;;5012520;28;20420;-55
2023/07/14 04:58:08;;;;;;;8.73;8.03;;;20.10;19.10;;;;;;5012081;28;20443;-61
2023/07/14 05:00:36;;;;;;;8.40;7.90;;;20.00;19.00;;;;;;5012036;28;20416;-60
2023/07/14 05:03:02;;;;;;;9.13;8.30;;;20.00;19.20;;;;;;4976584;28;20954;-61
2023/07/14 05:05:27;;;;;;;8.60;8.07;;;20.00;19.50;;;;;;4982525;28;20517;-53
2023/07/14 05:07:55;;;;;;;8.83;8.33;;;20.00;19.20;;;;;;4991895;28;20186;-53
2023/07/14 05:10:22;;;;;;;10.07;9.37;;;20.00;19.50;;;;;;4992161;28;20421;-51
2023/07/14 05:12:52;;;;;;;9.37;8.77;;;20.10;19.30;;;;;;4992135;28;20802;-53
2023/07/14 05:15:19;;;;;;;7.77;7.37;;;20.10;19.30;;;;;;4992123;28;20422;-53
2023/07/14 05:17:45;;;;;;;8.47;7.97;;;20.00;19.30;;;;;;4992204;28;20484;-53
2023/07/14 05:20:13;;;;;;;9.33;8.83;;;20.10;19.30;;;;;;4991938;28;20825;-52
2023/07/14 05:22:41;;;;;;;8.80;8.20;;;20.20;19.30;;;;;;4992475;28;20414;-52
2023/07/14 05:25:06;;;;;;;9.53;8.90;;;20.40;19.20;;;;;;4992192;28;20410;-53
2023/07/14 05:27:32;;;;;;;8.50;8.10;;;20.50;18.90;;;;;;4992427;28;20980;-53
2023/07/14 05:29:58;;;;;;;10.53;9.60;;;20.40;18.70;;;;;;4991925;28;20975;-54
2023/07/14 05:32:27;;;;;;;11.87;10.97;;;20.30;18.80;;;;;;4992177;28;20174;-53
2023/07/14 05:34:52;;;;;;;10.23;9.47;;;20.20;19.40;;;;;;4993491;28;20170;-53
2023/07/14 05:37:18;;;;;;;10.87;10.07;;;20.20;19.60;;;;;;4992101;28;20423;-53
2023/07/14 05:39:45;;;;;;;11.37;10.43;;;20.10;19.50;;;;;;5008283;28;20426;-52
2023/07/14 05:42:11;;;;;;;9.87;9.17;;;20.10;19.60;;;;;;5008336;28;20424;-53
2023/07/14 05:44:37;;;;;;;10.33;9.60;;;20.20;19.40;;;;;;4992096;28;20520;-54
2023/07/14 05:47:03;;;;;;;9.27;8.67;;;20.20;19.90;;;;;;4991743;28;20536;-55
2023/07/14 05:49:29;;;;;;;10.63;9.73;;;20.20;19.70;;;;;;4991781;28;20423;-55
2023/07/14 05:51:55;;;;;;;10.70;10.00;;;20.30;19.60;;;;;;4991950;28;20828;-50
2023/07/14 05:54:21;;;;;;;10.50;9.80;;;20.30;19.50;;;;;;5008385;28;20497;-52
2023/07/14 05:56:47;;;;;;;12.40;11.70;;;20.20;19.70;;;;;;4991735;28;20178;-51
2023/07/14 05:59:13;;;;;;;11.37;10.70;;;20.30;19.80;;;;;;5007829;28;20428;-61
2023/07/14 06:01:39;;;;;;;9.43;8.63;;;20.30;19.60;;;;;;5007710;28;20256;-61
2023/07/14 06:04:08;;;;;;;9.33;8.73;;;20.30;19.60;;;;;;4991520;28;20508;-61
2023/07/14 06:06:33;;;;;;;9.53;8.93;;;20.30;19.70;;;;;;4991576;28;20670;-61
2023/07/14 06:09:00;;;;;;;9.80;9.10;;;20.20;20.10;;;;;;4991539;28;20504;-61
2023/07/14 06:11:27;;;;;;;10.47;9.77;;;20.40;20.40;;;;;;4993411;28;20205;-61
2023/07/14 06:13:52;;;;;;;10.33;9.60;;;20.50;19.30;;;;;;4993176;28;20523;-56
2023/07/14 06:16:20;;;;;;;10.10;9.40;;;20.60;19.40;;;;;;4992446;28;20536;-56
2023/07/14 06:18:46;;;;;;;10.47;9.47;;;20.80;19.40;;;;;;4995480;28;20177;-56
2023/07/14 06:21:12;;;;;;;10.10;9.40;;;20.90;19.30;;;;;;4996461;28;20430;-62
2023/07/14 06:23:37;;;;;;;10.60;9.90;;;21.00;18.80;;;;;;4996837;28;20211;-62
2023/07/14 06:26:03;;;;;;;10.37;9.73;;;20.90;18.30;;;;;;4997523;28;20463;-63
2023/07/14 06:28:29;;;;;;;10.47;9.57;;;20.90;18.90;;;;;;4998294;28;20196;-63
2023/07/14 06:30:57;;;;;;;10.10;9.40;;;20.90;19.10;;;;;;4998503;28;20412;-57
2023/07/14 06:33:23;;;;;;;10.00;9.37;;;21.00;18.80;;;;;;4998309;28;20173;-57
2023/07/14 06:35:49;;;;;;;10.00;9.33;;;21.00;18.10;;;;;;4998656;28;20557;-58
2023/07/14 06:38:14;;;;;;;9.80;8.80;;;21.00;18.10;;;;;;4998045;28;20836;-57
2023/07/14 06:40:41;;;;;;;10.53;9.67;;;21.00;18.10;;;;;;4998435;28;20642;-58
2023/07/14 06:43:09;;;;;;;9.97;9.27;;;21.10;18.10;;;;;;4998141;28;20227;-57
2023/07/14 06:45:35;;;;;;;10.27;9.30;;;21.20;17.40;;;;;;4998131;28;20417;-57
2023/07/14 06:48:01;;;;;;;9.80;9.17;;;21.10;17.30;;;;;;4997843;28;20444;-57
2023/07/14 06:50:26;;;;;;;9.60;9.00;;;21.00;17.50;;;;;;4998106;28;20494;-57
2023/07/14 06:52:53;;;;;;;9.20;8.60;;;21.20;17.60;;;;;;4998029;28;20419;-57
2023/07/14 06:55:19;;;;;;;9.10;8.60;;;21.20;17.40;;;;;;4997806;28;20252;-57
2023/07/14 06:57:44;;;;;;;10.23;9.53;;;21.30;17.20;;;;;;5017230;28;20774;-58
2023/07/14 07:00:12;;;;;;;8.73;8.23;;;21.30;16.80;;;;;;4997621;28;20412;-57
2023/07/14 07:02:39;;;;;;;10.50;9.90;;;21.40;16.50;;;;;;4997907;28;20212;-56
2023/07/14 07:05:06;;;;;;;9.67;8.87;;;21.40;16.60;;;;;;4997828;28;20460;-57
2023/07/14 07:07:35;;;;;;;15.53;9.27;;;21.50;16.40;;;;;;4997821;28;20471;-58
2023/07/14 07:10:01;;;;;;;9.90;9.20;;;21.50;16.30;;;;;;5013832;28;20412;-58
2023/07/14 07:12:27;;;;;;;9.87;9.10;;;21.60;16.30;;;;;;4997615;28;20420;-57
2023/07/14 07:14:53;;;;;;;8.70;8.30;;;21.60;16.40;;;;;;4997618;28;20519;-59
2023/07/14 07:17:18;;;;;;;9.90;9.30;;;21.70;15.80;;;;;;4997520;28;20629;-58
2023/07/14 07:19:44;;;;;;;9.70;9.00;;;21.70;15.20;;;;;;4997329;28;20600;-57
2023/07/14 07:22:10;;;;;;;9.90;9.00;;;21.80;15.50;;;;;;4997322;28;20185;-57
2023/07/14 07:24:35;;;;;;;10.40;9.50;;;21.80;15.60;;;;;;4990368;28;20192;-57
2023/07/14 07:27:02;;;;;;;9.70;9.30;;;21.90;15.50;;;;;;5007703;28;20214;-58
2023/07/14 07:29:30;;;;;;;9.40;9.00;;;22.00;15.70;;;;;;5009951;28;20252;-58
2023/07/14 07:31:56;;;;;;;9.53;8.83;;;22.00;14.90;;;;;;4997101;28;20427;-57
2023/07/14 07:34:22;;;;;;;9.23;8.83;;;22.10;13.60;;;;;;4996472;28;20428;-57
2023/07/14 07:36:47;;;;;;;9.00;8.50;;;22.20;13.50;;;;;;5014782;28;20518;-57
2023/07/14 07:39:13;;;;;;;9.43;8.70;;;22.30;14.30;;;;;;4996463;28;20536;-58
2023/07/14 07:41:39;;;;;;;9.80;9.20;;;22.40;13.20;;;;;;4997075;28;20239;-57
2023/07/14 07:44:08;;;;;;;8.70;8.20;;;22.40;13.30;;;;;;4996876;28;20177;-58
2023/07/14 07:46:35;;;;;;;9.80;9.10;;;22.50;13.30;;;;;;4993652;28;20469;-57
2023/07/14 07:49:02;;;;;;;10.90;10.10;;;22.50;13.80;;;;;;4977172;28;20424;-57
2023/07/14 07:51:28;;;;;;;9.63;8.97;;;22.60;13.80;;;;;;4993642;28;20468;-57
2023/07/14 07:53:54;;;;;;;8.70;8.30;;;22.60;13.80;;;;;;4977383;28;20424;-57
2023/07/14 07:56:20;;;;;;;9.17;8.70;;;22.70;13.00;;;;;;4977660;28;20432;-57
2023/07/14 07:58:46;;;;;;;9.97;9.37;;;22.80;12.30;;;;;;4977088;28;20557;-57
2023/07/14 08:01:19;;;;;;;10.23;9.60;;;22.90;12.20;;;;;;4977197;28;20875;-57
2023/07/14 08:03:44;;;;;;;8.97;8.27;;;23.10;11.10;;;;;;4977259;28;20189;-58
2023/07/14 08:06:10;;;;;;;9.40;8.80;;;23.30;9.70;;;;;;4976996;28;20460;-57
2023/07/14 08:08:36;;;;;;;9.63;9.03;;;23.50;9.10;;;;;;4977001;28;20185;-56
2023/07/14 08:11:02;;;;;;;8.90;8.40;;;23.60;8.20;;;;;;4992099;28;20209;-57
2023/07/14 08:13:29;;;;;;;9.37;8.87;;;23.70;8.50;;;;;;4996412;28;20265;-64
2023/07/14 08:15:55;;;;;;;8.87;8.20;;;23.80;8.00;;;;;;4996323;28;20423;-60
2023/07/14 08:18:22;;;;;;;8.60;8.20;;;23.80;7.90;;;;;;4996245;28;20413;-60
2023/07/14 08:20:51;;;;;;;8.50;8.10;;;23.90;7.80;;;;;;4996369;28;20534;-60
2023/07/14 08:23:19;;;;;;;8.40;8.10;;;24.00;7.80;;;;;;4996133;28;20502;-57
2023/07/14 08:26:00;;;;;;;8.80;8.23;;;24.00;7.80;;;;;;4996159;28;20500;-60
2023/07/14 08:28:27;;;;;;;7.70;7.23;;;24.10;7.50;;;;;;4996043;28;20426;-60
2023/07/14 08:30:55;;;;;;;7.13;6.77;;;24.20;8.00;;;;;;4996067;28;20929;-60
2023/07/14 08:33:22;;;;;;;7.60;7.30;;;24.20;7.20;;;;;;4995997;28;20467;-60
2023/07/14 08:35:53;;;;;;;7.80;7.40;;;24.30;7.10;;;;;;4995934;28;20427;-60
2023/07/14 08:38:19;;;;;;;8.40;8.00;;;24.30;7.10;;;;;;4995817;28;20811;-60
2023/07/14 08:40:52;;;;;;;8.53;8.07;;;24.40;7.20;;;;;;5004878;28;20428;-60
2023/07/14 08:43:36;;;;;;;8.33;8.03;;;24.50;7.20;;;;;;4995877;28;20441;-60
2023/07/14 08:46:14;;;;;;;9.00;8.23;;;24.50;7.20;;;;;;4995680;28;20467;-60
2023/07/14 08:48:48;;;;;;;8.17;7.47;;;24.60;7.50;;;;;;4995657;28;20412;-60
2023/07/14 08:51:18;;;;;;;8.00;7.50;;;24.60;7.30;;;;;;4995597;28;20420;-60
2023/07/14 08:53:55;;;;;;;8.10;7.70;;;24.60;7.30;;;;;;4995567;28;20439;-60
2023/07/14 08:56:21;;;;;;;7.50;7.20;;;24.60;7.10;;;;;;4995711;28;20522;-60
2023/07/14 08:58:49;;;;;;;8.87;8.27;;;24.60;6.70;;;;;;4995392;28;20463;-60
2023/07/14 09:01:30;;;;;;;7.80;7.40;;;24.60;6.70;;;;;;4995484;28;20507;-60
2023/07/14 09:04:03;;;;;;;8.93;8.23;;;24.70;6.80;;;;;;4997927;28;20428;-60
2023/07/14 09:06:36;;;;;;;8.87;8.30;;;24.80;6.50;;;;;;5012984;28;20466;-60
2023/07/14 09:09:03;;;;;;;8.10;7.67;;;24.80;6.70;;;;;;5011358;28;20917;-60
2023/07/14 09:11:38;;;;;;;8.73;8.13;;;24.80;6.60;;;;;;5011882;28;20452;-64
2023/07/14 09:14:12;;;;;;;8.73;8.33;;;24.70;6.90;;;;;;5011614;28;20420;-64
2023/07/14 09:16:46;;;;;;;8.77;8.37;;;24.70;7.00;;;;;;5011953;28;20427;-64
2023/07/14 09:19:39;;;;;;;7.80;7.30;;;24.70;7.00;;;;;;4994996;28;20435;-65
2023/07/14 09:22:18;;;;;;;8.33;7.97;;;24.60;7.10;;;;;;5011512;28;20474;-64
2023/07/14 09:24:56;;;;;;;8.37;7.87;;;24.70;7.40;;;;;;5011416;28;20510;-64
2023/07/14 09:27:27;;;;;;;8.90;8.37;;;24.80;7.10;;;;;;5011292;28;20478;-64
2023/07/14 09:29:53;;;;;;;8.77;8.27;;;24.80;6.50;;;;;;5011162;28;20417;-65
2023/07/14 09:32:41;;;;;;;8.60;8.10;;;24.80;6.40;;;;;;4994917;28;20431;-65
2023/07/14 09:35:18;;;;;;;7.57;7.20;;;24.90;6.50;;;;;;4994697;28;20915;-65
2023/07/14 09:37:53;;;;;;;7.90;7.60;;;24.90;6.50;;;;;;5011269;28;20504;-65
2023/07/14 09:40:31;;;;;;;7.47;7.17;;;24.90;6.70;;;;;;5011199;28;20908;-65
2023/07/14 09:42:58;;;;;;;8.00;7.30;;;24.90;6.30;;;;;;5011143;28;20428;-64
2023/07/14 09:45:32;;;;;;;8.20;7.70;;;24.90;6.20;;;;;;5011136;28;20420;-65
2023/07/14 09:47:58;;;;;;;9.70;8.97;;;24.90;6.30;;;;;;5010880;28;20506;-65
2023/07/14 09:50:25;;;;;;;8.50;7.90;;;24.90;6.80;;;;;;5011073;28;20491;-68
2023/07/14 09:52:57;;;;;;;8.70;8.30;;;24.90;7.00;;;;;;5011037;28;20243;-65
2023/07/14 09:55:24;;;;;;;9.00;8.40;;;24.90;6.20;;;;;;5011070;28;21073;-65
2023/07/14 09:57:53;;;;;;;8.83;8.43;;;24.90;6.50;;;;;;5010887;28;20424;-65
2023/07/14 10:00:24;;;;;;;8.60;8.00;;;25.10;6.50;;;;;;5011001;28;20408;-65
2023/07/14 10:03:01;;;;;;;8.70;8.30;;;25.10;6.70;;;;;;5011005;28;20424;-65
2023/07/14 10:05:47;;;;;;;7.80;7.50;;;25.00;6.10;;;;;;5010868;28;20758;-64
2023/07/14 10:08:25;;;;;;;7.63;7.40;;;25.00;5.90;;;;;;5010717;28;20809;-64
2023/07/14 10:10:50;;;;;;;7.80;7.30;;;25.00;5.70;;;;;;5010832;28;20459;-64
2023/07/14 10:13:20;;;;;;;8.00;7.60;;;25.00;6.10;;;;;;4994466;28;20491;-64
2023/07/14 10:16:14;;;;;;;8.50;8.10;;;25.10;6.10;;;;;;5010695;28;20247;-64
2023/07/14 10:19:12;;;;;;;9.50;8.70;;;25.10;6.10;;;;;;5010209;28;20953;-65
2023/07/14 10:21:54;;;;;;;8.07;7.77;;;25.10;6.80;;;;;;5010519;28;20507;-64
2023/07/14 10:24:20;;;;;;;8.53;8.03;;;25.10;6.20;;;;;;5010768;28;20955;-64
2023/07/14 10:26:57;;;;;;;8.40;7.93;;;25.10;6.40;;;;;;5010512;28;20497;-64
2023/07/14 10:29:26;;;;;;;8.40;7.97;;;25.10;5.10;;;;;;5010599;28;20730;-64
2023/07/14 10:32:03;;;;;;;8.10;7.80;;;25.10;4.40;;;;;;5001852;28;20424;-64
2023/07/14 10:34:47;;;;;;;8.60;7.90;;;25.10;4.90;;;;;;4994334;28;20924;-65
2023/07/14 10:37:24;;;;;;;8.47;8.07;;;25.10;4.30;;;;;;4994300;28;20408;-65
2023/07/14 10:39:57;;;;;;;7.90;7.60;;;25.10;4.40;;;;;;4994494;28;20786;-65
2023/07/14 10:42:28;;;;;;;8.37;7.97;;;25.10;4.60;;;;;;4994606;28;20424;-65
2023/07/14 10:44:54;;;;;;;7.50;7.20;;;25.10;4.30;;;;;;4994665;28;20513;-65
2023/07/14 10:47:31;;;;;;;9.03;8.30;;;25.20;4.30;;;;;;4990813;28;20476;-64
2023/07/14 10:50:04;;;;;;;7.03;6.83;;;25.30;4.30;;;;;;4974678;28;20425;-65
2023/07/14 10:52:39;;;;;;;7.53;7.23;;;25.20;4.20;;;;;;4974898;28;20421;-66
2023/07/14 10:55:29;;;;;;;8.40;8.00;;;25.20;4.70;;;;;;4974757;28;20913;-63
2023/07/14 10:58:00;;;;;;;7.80;7.30;;;25.30;4.60;;;;;;4990271;28;20417;-64
2023/07/14 11:00:46;;;;;;;9.20;8.43;;;25.30;5.30;;;;;;4974768;28;20756;-64
2023/07/14 11:03:40;;;;;;;7.70;7.40;;;25.30;4.70;;;;;;4974783;28;20427;-65
2023/07/14 11:06:22;;;;;;;7.90;7.43;;;25.40;4.60;;;;;;4994006;28;20453;-65
2023/07/14 11:08:53;;;;;;;8.90;8.50;;;25.30;4.70;;;;;;4982335;28;20439;-64
2023/07/14 11:11:39;;;;;;;9.37;8.87;;;25.30;4.60;;;;;;4997765;28;20947;-65
2023/07/14 11:14:56;;;;;;;8.20;7.90;;;25.40;4.10;;;;;;4997471;28;20415;-62
2023/07/14 11:17:25;;;;;;;8.03;7.63;;;25.40;4.20;;;;;;5014033;28;20470;-61
2023/07/14 11:19:50;;;;;;;9.63;8.47;;;25.40;3.70;;;;;;4997210;28;20407;-61
2023/07/14 11:22:33;;;;;;;7.20;6.70;;;25.50;4.30;;;;;;4997597;28;20941;-61
2023/07/14 11:25:12;;;;;;;7.00;6.73;;;25.60;3.80;;;;;;4997341;28;20220;-59
2023/07/14 11:28:11;;;;;;;7.50;7.10;;;25.50;3.70;;;;;;4997274;28;20828;-61
2023/07/14 11:30:42;;;;;;;7.30;6.90;;;25.50;3.80;;;;;;4997452;28;20416;-61
2023/07/14 11:33:10;;;;;;;7.63;7.33;;;25.60;3.30;;;;;;5014792;28;20466;-60
2023/07/14 11:36:05;;;;;;;7.37;6.90;;;25.60;3.30;;;;;;4997307;28;20467;-61
2023/07/14 11:39:09;;;;;;;9.43;8.77;;;25.80;3.50;;;;;;4997099;28;20435;-60
2023/07/14 11:41:36;;;;;;;7.70;7.30;;;25.80;4.10;;;;;;4997222;28;20412;-60
2023/07/14 11:44:13;;;;;;;7.53;7.17;;;25.70;3.70;;;;;;4997074;28;20415;-61
2023/07/14 11:46:39;;;;;;;8.30;7.80;;;25.70;3.30;;;;;;4997094;28;20871;-61
2023/07/14 11:49:07;;;;;;;7.90;7.60;;;25.80;2.90;;;;;;4996629;28;20491;-60
2023/07/14 11:51:50;;;;;;;8.63;7.90;;;25.70;3.30;;;;;;4997084;28;20423;-60
2023/07/14 11:54:19;;;;;;;8.40;7.90;;;25.60;3.80;;;;;;4997079;28;20801;-60
2023/07/14 11:57:16;;;;;;;7.50;7.20;;;25.60;3.60;;;;;;4996940;28;20788;-60
2023/07/14 11:59:56;;;;;;;7.80;7.43;;;25.60;3.30;;;;;;4995901;28;20431;-60
2023/07/14 12:02:43;;;;;;;7.03;6.70;;;25.70;3.60;;;;;;4996814;28;20940;-60
2023/07/14 12:05:14;;;;;;;7.00;6.70;;;25.80;3.40;;;;;;4996563;28;20562;-60
2023/07/14 12:08:07;;;;;;;8.20;7.40;;;25.80;3.40;;;;;;4996630;28;20831;-60
2023/07/14 12:10:39;;;;;;;7.90;7.40;;;26.00;3.30;;;;;;4996508;28;20423;-60
2023/07/14 12:13:18;;;;;;;7.97;7.67;;;26.10;3.10;;;;;;4996421;28;20417;-62
2023/07/14 12:15:49;;;;;;;7.20;6.90;;;26.30;2.50;;;;;;4995384;28;20495;-62
2023/07/14 12:18:17;;;;;;;8.03;7.70;;;26.30;2.30;;;;;;4996277;28;20417;-56
2023/07/14 12:20:43;;;;;;;7.77;7.37;;;26.30;2.50;;;;;;4996359;28;20471;-56
2023/07/14 12:23:17;;;;;;;7.50;7.20;;;26.20;2.30;;;;;;4996379;28;20456;-56
2023/07/14 12:25:51;;;;;;;8.40;8.00;;;26.10;2.40;;;;;;4996159;28;20575;-58
2023/07/14 12:28:26;;;;;;;7.97;7.60;;;26.10;2.60;;;;;;4996005;28;20425;-63
2023/07/14 12:30:53;;;;;;;7.43;7.03;;;26.20;2.70;;;;;;4996061;28;20412;-63
2023/07/14 12:33:21;;;;;;;8.80;8.30;;;26.20;2.70;;;;;;4996091;28;20466;-63
2023/07/14 12:35:49;;;;;;;9.07;8.57;;;26.20;2.40;;;;;;4996084;28;20937;-62
2023/07/14 12:38:17;;;;;;;6.87;6.57;;;26.20;2.30;;;;;;4995717;28;20869;-62
2023/07/14 12:40:44;;;;;;;7.53;7.23;;;26.20;2.40;;;;;;4996030;28;21018;-63
2023/07/14 12:43:23;;;;;;;7.93;7.33;;;26.20;2.40;;;;;;5013631;28;20808;-63
2023/07/14 12:45:49;;;;;;;7.23;6.93;;;26.40;1.80;;;;;;4995928;28;20857;-63
2023/07/14 12:48:15;;;;;;;7.90;7.37;;;26.40;1.90;;;;;;4995876;28;20460;-63
2023/07/14 12:50:43;;;;;;;8.93;7.27;;;26.30;2.10;;;;;;4995850;28;20451;-63
2023/07/14 12:53:17;;;;;;;7.50;7.10;;;26.30;1.80;;;;;;4995740;28;20653;-64
2023/07/14 12:55:44;;;;;;;7.70;7.40;;;26.40;1.80;;;;;;5013275;28;20495;-63
2023/07/14 12:58:27;;;;;;;7.70;7.40;;;26.40;1.30;;;;;;5011777;28;20423;-63
2023/07/14 13:00:54;;;;;;;7.77;7.37;;;26.60;1.50;;;;;;4995496;28;20448;-63
2023/07/14 13:03:20;;;;;;;7.30;6.77;;;26.70;1.00;;;;;;4995572;28;20921;-63
2023/07/14 13:05:48;;;;;;;7.70;7.40;;;26.80;1.10;;;;;;4995501;28;20429;-63
2023/07/14 13:08:26;;;;;;;7.90;7.30;;;26.80;1.10;;;;;;4995199;28;20185;-62
2023/07/14 13:10:53;;;;;;;7.13;6.83;;;26.70;1.30;;;;;;4974804;28;20451;-62
2023/07/14 13:13:24;;;;;;;6.60;6.40;;;26.60;1.00;;;;;;4974059;28;20427;-62